Capitol Logistics 460


KEWR
Newark Liberty International Airport
Newark, New Jersey, US
KMSP
Minneapolis-St Paul International Airport
Minneapolis, Minnesota, US

Activity Log

Date Flight Route Aircraft Duration
10/14/2019 CPX460 COATE Q436 RAAKK Q440 SLLAP IDIOM MUSCL3 B738 2h 16m
08/26/2019 CPX460 COATE Q436 RAAKK Q440 SLLAP IDIOM MUSCL3 B738 2h 27m
07/22/2019 CPX460 COATE Q436 RAAKK Q440 SLLAP IDIOM MUSCL3 B738 2h 37m

Route Details

Aircraft Information
Primary: Boeing 737-800BCF
Backup: Not Available
Route Data
Distance: 913nm
Sched. Duration: 2h 45m
Avg. Duration: 2h 26m (-18m)
Times Flown: 3
Recm'd Route: COATE Q436 RAAKK Q440 SLLAP IDIOM MUSCL3
Planned Altitude: 36,000ft
Origin Wx: KEWR 270951Z 27013KT 3SM -RA BR BKN007 OVC017 07/06 A2933 RMK AO2 SFC VIS 6 SLP931 P0002 T00720061
Dest. Wx: KMSP 270953Z 32004KT 10SM FEW110 BKN160 M08/M11 A3012 RMK AO2 SLP213 T10781111
Notes:

Financial History
Total Freight: 48,576lbs
Average Load: 16,192lbs/flt
Fuel Used: 35,500lbs
Avg. Fuel Used: 11,833lbs/flt
Fuel Expense: $43,665
Avg. Fuel Expense: $14,555
Avg. Fuel Cost: $1.23/lbs
Total Gross Income: $62,663
Pilot Pay: $687
Total Expenses: $6,924
Total Revenue: $10,322
Average Revenue: $20,887.68